Time,TemperatureF,DewpointF,PressureIn,WindDirection,WindDirectionDegrees,WindSpeedMPH,WindSpeedGustMPH,Humidity,HourlyPrecipIn,Conditions,Clouds,dailyrainin,SoftwareType,DateUTC
2013-02-09 00:57:00,28.0,22.0,29.55,SSE,158,3.8,3.8,78,0.00,,,0.00,WUHU21623XXSP,2013-02-09 06:57:00,
2013-02-09 01:57:00,27.7,22.0,29.56,South,180,0.0,0.0,79,0.00,,,0.00,WUHU21623XXSP,2013-02-09 07:57:00,
2013-02-09 02:57:00,27.5,21.9,29.54,South,180,2.9,2.9,79,0.00,,,0.00,WUHU21623XXSP,2013-02-09 08:57:00,
2013-02-09 03:57:00,27.5,21.9,29.54,SSE,158,0.0,0.0,79,0.00,,,0.00,WUHU21623XXSP,2013-02-09 09:57:00,
2013-02-09 04:57:00,27.3,21.9,29.53,SE,135,3.8,3.8,80,0.00,,,0.00,WUHU21623XXSP,2013-02-09 10:57:00,
2013-02-09 05:57:00,27.5,22.4,29.53,SE,135,0.0,0.0,81,0.00,,,0.00,WUHU21623XXSP,2013-02-09 11:57:00,
2013-02-09 06:57:00,27.1,22.0,29.54,South,180,0.0,0.0,81,0.00,,,0.00,WUHU21623XXSP,2013-02-09 12:57:00,
2013-02-09 07:57:00,27.7,22.6,29.53,SSE,158,3.4,3.4,81,0.00,,,0.00,WUHU21623XXSP,2013-02-09 13:57:00,
2013-02-09 08:13:00,28.0,22.9,29.52,SE,135,5.4,5.4,81,0.00,,,0.00,WUHU21623XXSP,2013-02-09 14:13:00,
2013-02-09 08:18:00,28.0,22.9,29.52,SE,135,3.6,5.4,81,0.00,,,0.00,WUHU21623XXSP,2013-02-09 14:18:00,
2013-02-09 08:23:00,28.2,22.9,29.53,SSW,202,2.7,4.5,81,0.00,,,0.00,WUHU21623XXSP,2013-02-09 14:23:00,
2013-02-09 08:28:00,28.2,23.1,29.53,SSE,157,6.0,6.0,81,0.00,,,0.00,WUHU21623XXSP,2013-02-09 14:28:00,
2013-02-09 08:33:00,28.2,23.1,29.52,SE,135,8.3,8.3,81,0.00,,,0.00,WUHU21623XXSP,2013-02-09 14:33:00,
2013-02-09 08:38:00,28.2,23.1,29.51,SE,135,0.7,8.3,81,0.00,,,0.00,WUHU21623XXSP,2013-02-09 14:38:00,
2013-02-09 08:43:00,28.6,23.5,29.51,SE,135,2.2,2.7,81,0.00,,,0.00,WUHU21623XXSP,2013-02-09 14:43:00,
2013-02-09 08:48:00,28.6,23.5,29.51,SSE,157,1.3,2.2,81,0.00,,,0.00,WUHU21623XXSP,2013-02-09 14:48:00,
2013-02-09 08:53:00,28.8,23.6,29.51,SE,135,1.8,5.1,81,0.00,,,0.00,WUHU21623XXSP,2013-02-09 14:53:00,
2013-02-09 08:58:00,28.9,23.8,29.51,SE,135,5.8,5.8,81,0.00,,,0.00,WUHU21623XXSP,2013-02-09 14:58:00,
2013-02-09 09:03:00,28.9,23.8,29.51,SE,135,5.4,5.8,81,0.00,,,0.00,WUHU21623XXSP,2013-02-09 15:03:00,
2013-02-09 09:08:00,29.1,23.7,29.52,South,180,6.7,8.7,80,0.00,,,0.00,WUHU21623XXSP,2013-02-09 15:08:00,
2013-02-09 09:13:00,29.1,23.7,29.52,ESE,112,5.6,8.7,80,0.00,,,0.00,WUHU21623XXSP,2013-02-09 15:13:00,
2013-02-09 09:18:00,29.3,23.9,29.52,SSE,157,4.0,5.6,80,0.00,,,0.00,WUHU21623XXSP,2013-02-09 15:18:00,
2013-02-09 09:23:00,29.3,23.9,29.52,SE,135,0.0,7.4,80,0.00,,,0.00,WUHU21623XXSP,2013-02-09 15:23:00,
2013-02-09 09:28:00,29.5,24.1,29.52,SSE,157,3.4,7.4,80,0.00,,,0.00,WUHU21623XXSP,2013-02-09 15:28:00,
2013-02-09 09:33:00,29.7,24.3,29.51,SSE,157,11.0,11.0,80,0.00,,,0.00,WUHU21623XXSP,2013-02-09 15:33:00,
2013-02-09 09:38:00,29.7,24.3,29.52,SSW,202,1.6,11.0,80,0.00,,,0.00,WUHU21623XXSP,2013-02-09 15:38:00,
2013-02-09 09:43:00,29.8,24.4,29.52,SSE,157,12.5,12.5,80,0.00,,,0.00,WUHU21623XXSP,2013-02-09 15:43:00,
2013-02-09 09:48:00,29.8,24.4,29.51,SSE,157,5.4,12.5,80,0.00,,,0.00,WUHU21623XXSP,2013-02-09 15:48:00,
2013-02-09 09:53:00,30.0,24.6,29.51,SSE,157,2.0,6.0,80,0.00,,,0.00,WUHU21623XXSP,2013-02-09 15:53:00,
2013-02-09 09:58:00,30.0,24.6,29.51,SSE,157,5.8,6.9,80,0.00,,,0.00,WUHU21623XXSP,2013-02-09 15:58:00,
2013-02-09 10:03:00,30.4,24.7,29.50,South,180,0.0,6.9,79,0.00,,,0.00,WUHU21623XXSP,2013-02-09 16:03:00,
2013-02-09 10:08:00,30.7,25.0,29.51,SE,135,7.2,7.2,79,0.00,,,0.00,WUHU21623XXSP,2013-02-09 16:08:00,
2013-02-09 10:13:00,30.7,25.0,29.50,SE,135,6.3,7.2,79,0.00,,,0.00,WUHU21623XXSP,2013-02-09 16:13:00,
2013-02-09 10:18:00,30.9,25.2,29.50,SSW,202,0.9,8.3,79,0.00,,,0.00,WUHU21623XXSP,2013-02-09 16:18:00,
2013-02-09 10:23:00,30.9,24.9,29.50,SE,135,2.9,15.2,78,0.00,,,0.00,WUHU21623XXSP,2013-02-09 16:23:00,
2013-02-09 10:28:00,30.9,24.9,29.50,SW,225,14.1,15.2,78,0.00,,,0.00,WUHU21623XXSP,2013-02-09 16:28:00,
2013-02-09 10:33:00,30.9,24.9,29.50,SE,135,1.8,14.1,78,0.00,,,0.00,WUHU21623XXSP,2013-02-09 16:33:00,
2013-02-09 10:38:00,31.1,25.1,29.50,SSE,157,7.2,9.4,78,0.00,,,0.00,WUHU21623XXSP,2013-02-09 16:38:00,
2013-02-09 10:43:00,31.1,25.1,29.49,SE,135,4.7,9.4,78,0.00,,,0.00,WUHU21623XXSP,2013-02-09 16:43:00,
2013-02-09 10:48:00,31.1,25.1,29.49,SE,135,6.9,7.8,78,0.00,,,0.00,WUHU21623XXSP,2013-02-09 16:48:00,
2013-02-09 10:53:00,31.1,25.1,29.49,SSE,157,0.0,7.8,78,0.00,,,0.00,WUHU21623XXSP,2013-02-09 16:53:00,
2013-02-09 10:58:00,31.3,25.2,29.49,SE,135,5.8,17.9,78,0.00,,,0.00,WUHU21623XXSP,2013-02-09 16:58:00,
2013-02-09 11:03:00,31.3,24.9,29.48,SE,135,3.6,17.9,77,0.00,,,0.00,WUHU21623XXSP,2013-02-09 17:03:00,
2013-02-09 11:08:00,31.6,25.3,29.48,South,180,2.9,9.6,77,0.00,,,0.00,WUHU21623XXSP,2013-02-09 17:08:00,
2013-02-09 11:13:00,31.8,25.4,29.47,South,180,6.5,17.2,77,0.00,,,0.00,WUHU21623XXSP,2013-02-09 17:13:00,
2013-02-09 11:18:00,31.8,25.4,29.47,SSE,157,6.0,17.2,77,0.00,,,0.00,WUHU21623XXSP,2013-02-09 17:18:00,
2013-02-09 11:23:00,32.4,25.8,29.47,SE,135,3.8,9.6,76,0.00,,,0.00,WUHU21623XXSP,2013-02-09 17:23:00,
2013-02-09 11:28:00,32.5,25.8,29.47,SSE,157,4.3,9.6,76,0.00,,,0.00,WUHU21623XXSP,2013-02-09 17:28:00,
2013-02-09 11:33:00,32.7,26.0,29.46,SW,225,7.8,7.8,76,0.00,,,0.00,WUHU21623XXSP,2013-02-09 17:33:00,
2013-02-09 11:38:00,33.1,26.0,29.46,SE,135,11.6,11.6,75,0.00,,,0.00,WUHU21623XXSP,2013-02-09 17:38:00,
2013-02-09 11:43:00,33.1,25.8,29.45,SE,135,11.6,11.6,75,0.00,,,0.00,WUHU21623XXSP,2013-02-09 17:43:00,
2013-02-09 11:48:00,33.1,26.0,29.45,SSE,157,0.7,11.6,75,0.00,,,0.00,WUHU21623XXSP,2013-02-09 17:48:00,
2013-02-09 11:53:00,33.1,26.0,29.44,SE,135,5.6,8.3,75,0.00,,,0.00,WUHU21623XXSP,2013-02-09 17:53:00,
2013-02-09 11:58:00,33.4,26.3,29.45,SSE,157,5.1,15.0,75,0.00,,,0.00,WUHU21623XXSP,2013-02-09 17:58:00,
2013-02-09 12:03:00,33.6,26.4,29.45,South,180,2.2,15.0,75,0.00,,,0.00,WUHU21623XXSP,2013-02-09 18:03:00,
2013-02-09 12:08:00,33.6,26.1,29.44,ESE,112,7.2,7.8,74,0.00,,,0.00,WUHU21623XXSP,2013-02-09 18:08:00,
2013-02-09 12:13:00,33.6,26.1,29.44,SE,135,10.5,10.5,74,0.00,,,0.00,WUHU21623XXSP,2013-02-09 18:13:00,
2013-02-09 12:18:00,33.6,26.4,29.43,SE,135,7.8,10.5,75,0.00,,,0.00,WUHU21623XXSP,2013-02-09 18:18:00,
2013-02-09 12:23:00,34.3,26.8,29.44,SSW,202,3.8,10.5,75,0.00,,,0.00,WUHU21623XXSP,2013-02-09 18:23:00,
2013-02-09 12:28:00,34.7,27.2,29.43,SSE,157,13.0,13.0,74,0.00,,,0.00,WUHU21623XXSP,2013-02-09 18:28:00,
2013-02-09 12:33:00,35.2,27.7,29.43,WSW,247,3.6,13.0,74,0.00,,,0.00,WUHU21623XXSP,2013-02-09 18:33:00,
2013-02-09 12:38:00,35.8,28.3,29.43,SSE,157,9.8,10.7,74,0.00,,,0.00,WUHU21623XXSP,2013-02-09 18:38:00,
2013-02-09 12:43:00,36.1,28.3,29.43,SSW,202,2.5,9.8,73,0.00,,,0.00,WUHU21623XXSP,2013-02-09 18:43:00,
2013-02-09 12:48:00,36.3,28.1,29.43,SSE,157,6.9,9.8,72,0.00,,,0.00,WUHU21623XXSP,2013-02-09 18:48:00,
2013-02-09 12:53:00,36.3,28.1,29.43,SE,135,2.0,8.5,72,0.00,,,0.00,WUHU21623XXSP,2013-02-09 18:53:00,
2013-02-09 12:58:00,36.5,28.3,29.43,SSE,157,8.1,8.1,72,0.00,,,0.00,WUHU21623XXSP,2013-02-09 18:58:00,
2013-02-09 13:03:00,37.0,28.9,29.43,SE,135,3.4,8.1,72,0.00,,,0.00,WUHU21623XXSP,2013-02-09 19:03:00,
2013-02-09 13:08:00,37.2,28.7,29.42,South,180,6.5,9.4,71,0.00,,,0.00,WUHU21623XXSP,2013-02-09 19:08:00,
2013-02-09 13:13:00,37.2,28.7,29.42,South,180,5.8,9.4,71,0.00,,,0.00,WUHU21623XXSP,2013-02-09 19:13:00,
2013-02-09 13:18:00,37.8,29.2,29.41,SSE,157,3.6,5.8,71,0.00,,,0.00,WUHU21623XXSP,2013-02-09 19:18:00,
2013-02-09 13:23:00,38.1,29.6,29.41,SE,135,1.8,6.5,71,0.00,,,0.00,WUHU21623XXSP,2013-02-09 19:23:00,
2013-02-09 13:28:00,37.9,29.1,29.41,SSE,157,10.5,11.4,70,0.00,,,0.00,WUHU21623XXSP,2013-02-09 19:28:00,
2013-02-09 13:33:00,37.9,29.1,29.40,SSE,157,2.0,11.4,70,0.00,,,0.00,WUHU21623XXSP,2013-02-09 19:33:00,
2013-02-09 13:38:00,37.6,28.7,29.40,ESE,112,7.8,7.8,70,0.00,,,0.00,WUHU21623XXSP,2013-02-09 19:38:00,
2013-02-09 13:43:00,37.4,28.6,29.40,ESE,112,2.7,7.8,70,0.00,,,0.00,WUHU21623XXSP,2013-02-09 19:43:00,
2013-02-09 13:48:00,37.2,28.4,29.40,SE,135,4.0,5.4,70,0.00,,,0.00,WUHU21623XXSP,2013-02-09 19:48:00,
2013-02-09 13:53:00,36.7,27.9,29.39,ESE,112,5.6,7.8,70,0.00,,,0.00,WUHU21623XXSP,2013-02-09 19:53:00,
2013-02-09 13:58:00,36.3,27.8,29.39,South,180,5.1,7.8,71,0.00,,,0.00,WUHU21623XXSP,2013-02-09 19:58:00,
2013-02-09 14:03:00,36.3,27.8,29.38,SSW,202,2.7,6.3,71,0.00,,,0.00,WUHU21623XXSP,2013-02-09 20:03:00,
2013-02-09 14:08:00,36.5,28.0,29.38,SSE,157,6.5,6.5,71,0.00,,,0.00,WUHU21623XXSP,2013-02-09 20:08:00,
2013-02-09 14:13:00,36.5,28.0,29.38,WSW,247,3.1,6.5,71,0.00,,,0.00,WUHU21623XXSP,2013-02-09 20:13:00,
2013-02-09 14:18:00,36.5,28.0,29.37,SSE,157,4.9,6.7,71,0.00,,,0.00,WUHU21623XXSP,2013-02-09 20:18:00,
2013-02-09 14:23:00,36.7,28.2,29.37,SSW,202,6.9,6.9,71,0.00,,,0.00,WUHU21623XXSP,2013-02-09 20:23:00,
2013-02-09 14:28:00,37.0,28.5,29.37,South,180,7.6,7.6,71,0.00,,,0.00,WUHU21623XXSP,2013-02-09 20:28:00,
2013-02-09 14:33:00,37.0,28.5,29.36,SE,135,10.3,10.3,71,0.00,,,0.00,WUHU21623XXSP,2013-02-09 20:33:00,
2013-02-09 14:38:00,37.8,29.2,29.36,South,180,6.0,10.3,71,0.00,,,0.00,WUHU21623XXSP,2013-02-09 20:38:00,
2013-02-09 14:43:00,38.3,29.7,29.36,ESE,112,6.7,7.2,71,0.00,,,0.00,WUHU21623XXSP,2013-02-09 20:43:00,
2013-02-09 14:48:00,38.5,29.9,29.36,SSE,157,3.1,6.7,71,0.00,,,0.00,WUHU21623XXSP,2013-02-09 20:48:00,
2013-02-09 14:53:00,39.4,30.7,29.36,SSE,157,4.9,5.1,71,0.00,,,0.00,WUHU21623XXSP,2013-02-09 20:53:00,
2013-02-09 14:58:00,39.9,30.9,29.36,East,90,11.2,11.2,70,0.00,,,0.00,WUHU21623XXSP,2013-02-09 20:58:00,
2013-02-09 15:03:00,39.9,30.9,29.36,SSE,157,5.6,11.2,70,0.00,,,0.00,WUHU21623XXSP,2013-02-09 21:03:00,
2013-02-09 15:08:00,39.9,30.5,29.36,South,180,6.7,12.3,69,0.00,,,0.00,WUHU21623XXSP,2013-02-09 21:08:00,
2013-02-09 15:13:00,39.9,30.5,29.36,SSE,157,4.3,12.3,69,0.00,,,0.00,WUHU21623XXSP,2013-02-09 21:13:00,
2013-02-09 15:18:00,39.9,30.5,29.35,SE,135,1.6,8.5,69,0.00,,,0.00,WUHU21623XXSP,2013-02-09 21:18:00,
2013-02-09 15:23:00,39.9,30.5,29.35,SE,135,11.4,11.4,69,0.00,,,0.00,WUHU21623XXSP,2013-02-09 21:23:00,
2013-02-09 15:28:00,39.9,30.5,29.35,SE,135,4.0,11.4,69,0.00,,,0.00,WUHU21623XXSP,2013-02-09 21:28:00,
2013-02-09 15:33:00,39.9,30.5,29.35,ESE,112,14.1,14.1,69,0.00,,,0.00,WUHU21623XXSP,2013-02-09 21:33:00,
2013-02-09 15:38:00,39.4,30.0,29.34,SSE,157,5.6,14.1,69,0.00,,,0.00,WUHU21623XXSP,2013-02-09 21:38:00,
2013-02-09 15:43:00,39.2,29.8,29.34,SSE,157,3.8,13.2,69,0.00,,,0.00,WUHU21623XXSP,2013-02-09 21:43:00,
2013-02-09 15:48:00,39.0,29.7,29.34,SSE,157,3.4,9.4,69,0.00,,,0.00,WUHU21623XXSP,2013-02-09 21:48:00,
2013-02-09 15:53:00,38.5,29.2,29.33,SSE,157,6.5,9.4,69,0.00,,,0.00,WUHU21623XXSP,2013-02-09 21:53:00,
2013-02-09 15:58:00,38.1,29.2,29.33,SE,135,3.4,6.5,69,0.00,,,0.00,WUHU21623XXSP,2013-02-09 21:58:00,
2013-02-09 16:03:00,37.9,29.1,29.33,SSW,202,0.0,4.5,70,0.00,,,0.00,WUHU21623XXSP,2013-02-09 22:03:00,
2013-02-09 16:08:00,37.6,28.7,29.33,SE,135,4.0,4.7,70,0.00,,,0.00,WUHU21623XXSP,2013-02-09 22:08:00,
2013-02-09 16:13:00,37.2,28.4,29.32,SSE,157,0.0,5.4,70,0.00,,,0.00,WUHU21623XXSP,2013-02-09 22:13:00,
2013-02-09 16:18:00,37.0,28.2,29.32,SE,135,10.5,10.5,70,0.00,,,0.00,WUHU21623XXSP,2013-02-09 22:18:00,
2013-02-09 16:23:00,36.7,28.2,29.32,SE,135,4.5,10.5,71,0.00,,,0.00,WUHU21623XXSP,2013-02-09 22:23:00,
2013-02-09 16:28:00,36.9,28.4,29.32,SE,135,0.0,5.4,71,0.00,,,0.00,WUHU21623XXSP,2013-02-09 22:28:00,
2013-02-09 16:33:00,36.9,28.4,29.31,SSE,157,3.6,5.4,71,0.00,,,0.00,WUHU21623XXSP,2013-02-09 22:33:00,
2013-02-09 16:38:00,36.9,28.4,29.31,SSE,157,5.8,5.8,71,0.00,,,0.00,WUHU21623XXSP,2013-02-09 22:38:00,
2013-02-09 16:43:00,36.9,28.7,29.30,SE,135,3.6,5.8,72,0.00,,,0.00,WUHU21623XXSP,2013-02-09 22:43:00,
2013-02-09 16:48:00,36.9,28.7,29.30,SSE,157,7.4,7.4,72,0.00,,,0.00,WUHU21623XXSP,2013-02-09 22:48:00,
2013-02-09 16:53:00,36.9,28.7,29.30,SE,135,6.7,7.4,72,0.00,,,0.00,WUHU21623XXSP,2013-02-09 22:53:00,
2013-02-09 16:58:00,36.7,28.5,29.29,SE,135,6.5,7.4,72,0.00,,,0.00,WUHU21623XXSP,2013-02-09 22:58:00,
2013-02-09 17:03:00,36.7,28.5,29.29,SSE,157,6.9,6.9,72,0.00,,,0.00,WUHU21623XXSP,2013-02-09 23:03:00,
2013-02-09 17:08:00,36.3,28.1,29.29,SSE,157,6.9,6.9,72,0.00,,,0.00,WUHU21623XXSP,2013-02-09 23:08:00,
2013-02-09 17:13:00,36.1,28.0,29.29,SE,135,9.6,9.6,72,0.00,,,0.00,WUHU21623XXSP,2013-02-09 23:13:00,
2013-02-09 17:18:00,36.0,28.1,29.28,SE,135,0.0,9.6,73,0.00,,,0.00,WUHU21623XXSP,2013-02-09 23:18:00,
2013-02-09 17:23:00,35.6,27.8,29.29,SSE,157,3.1,6.9,73,0.00,,,0.00,WUHU21623XXSP,2013-02-09 23:23:00,
2013-02-09 17:28:00,35.4,27.6,29.29,ESE,112,4.0,6.7,73,0.00,,,0.00,WUHU21623XXSP,2013-02-09 23:28:00,
2013-02-09 17:33:00,35.2,27.4,29.29,SE,135,2.7,6.7,73,0.00,,,0.00,WUHU21623XXSP,2013-02-09 23:33:00,
2013-02-09 17:38:00,34.9,27.0,29.29,SE,135,5.1,6.9,73,0.00,,,0.00,WUHU21623XXSP,2013-02-09 23:38:00,
2013-02-09 17:43:00,34.9,27.0,29.29,SE,135,7.6,7.6,73,0.00,,,0.00,WUHU21623XXSP,2013-02-09 23:43:00,
2013-02-09 17:48:00,34.7,26.9,29.29,SE,135,0.7,7.6,73,0.00,,,0.00,WUHU21623XXSP,2013-02-09 23:48:00,
2013-02-09 17:53:00,34.3,26.8,29.29,SE,135,8.7,8.7,74,0.00,,,0.00,WUHU21623XXSP,2013-02-09 23:53:00,
2013-02-09 17:58:00,34.3,26.8,29.28,SE,135,0.9,8.7,74,0.00,,,0.00,WUHU21623XXSP,2013-02-09 23:58:00,
2013-02-09 18:03:00,34.2,26.8,29.29,SE,135,2.2,2.2,74,0.00,,,0.00,WUHU21623XXSP,2013-02-10 00:03:00,
2013-02-09 18:08:00,33.8,26.8,29.29,SE,135,5.4,5.4,75,0.00,,,0.00,WUHU21623XXSP,2013-02-10 00:08:00,
2013-02-09 18:13:00,33.6,26.4,29.29,SE,135,1.1,5.4,75,0.00,,,0.00,WUHU21623XXSP,2013-02-10 00:13:00,
2013-02-09 18:18:00,33.6,26.4,29.29,SSE,157,5.6,5.6,75,0.00,,,0.00,WUHU21623XXSP,2013-02-10 00:18:00,
2013-02-09 18:23:00,33.4,26.3,29.29,SE,135,5.1,5.6,75,0.00,,,0.00,WUHU21623XXSP,2013-02-10 00:23:00,
2013-02-09 18:28:00,33.4,26.6,29.29,SSE,157,0.0,5.1,76,0.00,,,0.00,WUHU21623XXSP,2013-02-10 00:28:00,
2013-02-09 18:33:00,33.1,26.4,29.29,SE,135,0.0,4.7,76,0.00,,,0.00,WUHU21623XXSP,2013-02-10 00:33:00,
2013-02-09 18:38:00,32.9,26.1,29.29,SE,135,0.0,5.8,76,0.00,,,0.00,WUHU21623XXSP,2013-02-10 00:38:00,
2013-02-09 18:43:00,32.9,26.1,29.29,SE,135,3.8,5.8,76,0.00,,,0.00,WUHU21623XXSP,2013-02-10 00:43:00,
2013-02-09 18:48:00,32.9,26.1,29.29,SE,135,6.5,6.5,76,0.00,,,0.00,WUHU21623XXSP,2013-02-10 00:48:00,
2013-02-09 18:53:00,32.7,26.3,29.29,SE,135,10.1,10.1,77,0.00,,,0.00,WUHU21623XXSP,2013-02-10 00:53:00,
2013-02-09 18:58:00,32.7,26.3,29.29,SE,135,8.9,10.1,77,0.00,,,0.00,WUHU21623XXSP,2013-02-10 00:58:00,
2013-02-09 19:03:00,32.7,26.3,29.29,SE,135,7.2,8.9,77,0.00,,,0.00,WUHU21623XXSP,2013-02-10 01:03:00,
2013-02-09 19:08:00,32.7,26.3,29.29,SE,135,4.7,7.4,77,0.00,,,0.00,WUHU21623XXSP,2013-02-10 01:08:00,
2013-02-09 19:13:00,32.7,26.3,29.28,SE,135,6.9,7.4,77,0.00,,,0.00,WUHU21623XXSP,2013-02-10 01:13:00,
2013-02-09 19:18:00,32.7,26.3,29.28,SSE,157,5.8,6.9,77,0.00,,,0.00,WUHU21623XXSP,2013-02-10 01:18:00,
2013-02-09 19:23:00,32.5,26.3,29.28,SSE,157,6.0,6.9,77,0.00,,,0.00,WUHU21623XXSP,2013-02-10 01:23:00,
2013-02-09 19:28:00,32.5,26.1,29.28,SE,135,8.1,8.1,77,0.00,,,0.00,WUHU21623XXSP,2013-02-10 01:28:00,
2013-02-09 19:33:00,32.4,26.1,29.28,SE,135,6.7,8.1,77,0.00,,,0.00,WUHU21623XXSP,2013-02-10 01:33:00,
2013-02-09 19:38:00,32.2,26.1,29.28,SE,135,0.0,6.7,78,0.00,,,0.00,WUHU21623XXSP,2013-02-10 01:38:00,
2013-02-09 19:43:00,32.2,26.1,29.27,SSE,157,0.0,5.4,78,0.00,,,0.00,WUHU21623XXSP,2013-02-10 01:43:00,
2013-02-09 19:48:00,32.2,26.1,29.27,SE,135,2.0,8.7,78,0.00,,,0.00,WUHU21623XXSP,2013-02-10 01:48:00,
2013-02-09 19:53:00,31.8,25.8,29.27,SE,135,1.8,8.7,78,0.00,,,0.00,WUHU21623XXSP,2013-02-10 01:53:00,
2013-02-09 19:58:00,31.8,26.1,29.27,SE,135,7.2,8.1,79,0.00,,,0.00,WUHU21623XXSP,2013-02-10 01:58:00,
2013-02-09 20:03:00,31.8,26.1,29.26,SE,135,1.3,8.1,79,0.00,,,0.00,WUHU21623XXSP,2013-02-10 02:03:00,
2013-02-09 20:08:00,31.8,26.1,29.26,SE,135,4.7,10.1,79,0.00,,,0.00,WUHU21623XXSP,2013-02-10 02:08:00,
2013-02-09 20:13:00,31.8,26.1,29.26,ESE,112,6.7,10.1,79,0.00,,,0.00,WUHU21623XXSP,2013-02-10 02:13:00,
2013-02-09 20:18:00,31.6,25.9,29.26,SE,135,0.0,6.7,79,0.00,,,0.00,WUHU21623XXSP,2013-02-10 02:18:00,
2013-02-09 20:23:00,31.6,25.9,29.25,SE,135,5.8,6.7,79,0.00,,,0.00,WUHU21623XXSP,2013-02-10 02:23:00,
2013-02-09 20:28:00,31.6,25.9,29.26,SE,135,3.4,10.3,79,0.00,,,0.00,WUHU21623XXSP,2013-02-10 02:28:00,
2013-02-09 20:33:00,31.6,25.9,29.26,SE,135,1.1,10.3,79,0.00,,,0.00,WUHU21623XXSP,2013-02-10 02:33:00,
2013-02-09 20:38:00,31.3,25.9,29.25,SE,135,8.7,8.7,80,0.00,,,0.00,WUHU21623XXSP,2013-02-10 02:38:00,
2013-02-09 20:43:00,31.3,25.9,29.25,SE,135,2.7,8.7,80,0.00,,,0.00,WUHU21623XXSP,2013-02-10 02:43:00,
2013-02-09 20:48:00,31.3,25.9,29.25,SSE,157,0.0,8.7,80,0.00,,,0.00,WUHU21623XXSP,2013-02-10 02:48:00,
2013-02-09 20:53:00,31.3,25.9,29.24,SE,135,4.9,4.9,80,0.00,,,0.00,WUHU21623XXSP,2013-02-10 02:53:00,
2013-02-09 20:58:00,31.1,25.7,29.24,SSE,157,3.6,4.9,80,0.00,,,0.00,WUHU21623XXSP,2013-02-10 02:58:00,
2013-02-09 21:03:00,31.1,25.7,29.24,SE,135,7.8,7.8,80,0.00,,,0.00,WUHU21623XXSP,2013-02-10 03:03:00,
2013-02-09 21:08:00,31.1,26.0,29.24,SE,135,5.4,7.8,81,0.00,,,0.00,WUHU21623XXSP,2013-02-10 03:08:00,
2013-02-09 21:13:00,31.1,26.0,29.24,SE,135,6.5,6.5,81,0.00,,,0.00,WUHU21623XXSP,2013-02-10 03:13:00,
2013-02-09 21:18:00,31.3,26.2,29.24,SE,135,6.5,6.5,81,0.00,,,0.00,WUHU21623XXSP,2013-02-10 03:18:00,
2013-02-09 21:23:00,31.3,26.2,29.24,SSE,157,4.7,6.9,81,0.00,,,0.00,WUHU21623XXSP,2013-02-10 03:23:00,
2013-02-09 21:28:00,31.6,26.5,29.24,SE,135,7.6,7.6,81,0.00,,,0.00,WUHU21623XXSP,2013-02-10 03:28:00,
2013-02-09 21:33:00,31.6,26.5,29.24,SE,135,7.6,7.6,81,0.00,,,0.00,WUHU21623XXSP,2013-02-10 03:33:00,
2013-02-09 21:38:00,31.8,26.7,29.24,South,180,2.0,7.6,81,0.00,,,0.00,WUHU21623XXSP,2013-02-10 03:38:00,
2013-02-09 21:43:00,31.8,26.7,29.24,South,180,2.0,2.0,81,0.00,,,0.00,WUHU21623XXSP,2013-02-10 03:43:00,
2013-02-09 21:48:00,31.8,26.7,29.24,SSE,157,2.9,2.9,81,0.00,,,0.00,WUHU21623XXSP,2013-02-10 03:48:00,
2013-02-09 21:53:00,32.4,27.3,29.23,SSE,157,5.6,5.6,82,0.00,,,0.00,WUHU21623XXSP,2013-02-10 03:53:00,
2013-02-09 21:58:00,32.4,27.5,29.23,SSE,157,8.1,8.1,82,0.00,,,0.00,WUHU21623XXSP,2013-02-10 03:58:00,
2013-02-09 22:03:00,32.5,27.7,29.23,SSE,157,8.1,8.1,82,0.00,,,0.00,WUHU21623XXSP,2013-02-10 04:03:00,
2013-02-09 22:08:00,32.7,27.8,29.22,SE,135,3.8,8.1,82,0.00,,,0.00,WUHU21623XXSP,2013-02-10 04:08:00,
2013-02-09 22:13:00,32.7,27.8,29.22,SE,135,9.4,9.4,82,0.00,,,0.00,WUHU21623XXSP,2013-02-10 04:13:00,
2013-02-09 22:18:00,32.7,27.8,29.22,SE,135,9.4,9.4,82,0.00,,,0.00,WUHU21623XXSP,2013-02-10 04:18:00,
2013-02-09 22:23:00,32.7,27.8,29.21,SE,135,9.4,9.4,82,0.00,,,0.00,WUHU21623XXSP,2013-02-10 04:23:00,
2013-02-09 22:28:00,32.7,27.8,29.21,SSE,157,3.1,9.4,82,0.00,,,0.00,WUHU21623XXSP,2013-02-10 04:28:00,
2013-02-09 22:33:00,32.7,27.8,29.21,SE,135,3.1,3.1,82,0.00,,,0.00,WUHU21623XXSP,2013-02-10 04:33:00,
2013-02-09 22:38:00,32.7,27.8,29.21,SSE,157,0.0,3.1,82,0.00,,,0.00,WUHU21623XXSP,2013-02-10 04:38:00,
2013-02-09 22:43:00,32.7,27.8,29.20,SE,135,4.9,5.4,82,0.00,,,0.00,WUHU21623XXSP,2013-02-10 04:43:00,
2013-02-09 22:48:00,32.7,27.8,29.20,SSE,157,8.9,8.9,82,0.00,,,0.00,WUHU21623XXSP,2013-02-10 04:48:00,
2013-02-09 22:53:00,32.7,27.8,29.20,SSE,157,2.7,8.9,82,0.00,,,0.00,WUHU21623XXSP,2013-02-10 04:53:00,
2013-02-09 22:58:00,32.7,27.8,29.20,SSE,157,4.3,7.6,82,0.00,,,0.00,WUHU21623XXSP,2013-02-10 04:58:00,
2013-02-09 23:00:00,32.7,27.8,29.20,SSE,157,4.3,4.5,82,0.00,,,0.00,WUHU21623XXSP,2013-02-10 05:00:00,
2013-02-09 23:57:00,33.6,28.7,29.21,SSE,158,4.9,4.9,82,0.00,,,0.00,WUHU21623XXSP,2013-02-10 05:57:00,